sensor_id;sensor_type;location;lat;lon;timestamp;P1;durP1;ratioP1;P2;durP2;ratioP2
10465;SDS011;5280;42.600;23.556;2023-07-13T00:00:46;5.60;;;3.20;;
10465;SDS011;5280;42.600;23.556;2023-07-13T00:03:13;4.03;;;3.37;;
10465;SDS011;5280;42.600;23.556;2023-07-13T00:05:40;3.33;;;3.03;;
10465;SDS011;5280;42.600;23.556;2023-07-13T00:08:07;3.43;;;3.13;;
10465;SDS011;5280;42.600;23.556;2023-07-13T00:10:38;3.13;;;2.90;;
10465;SDS011;5280;42.600;23.556;2023-07-13T00:13:07;3.67;;;2.90;;
10465;SDS011;5280;42.600;23.556;2023-07-13T00:15:35;3.07;;;2.73;;
10465;SDS011;5280;42.600;23.556;2023-07-13T00:18:02;3.47;;;3.00;;
10465;SDS011;5280;42.600;23.556;2023-07-13T00:20:30;3.07;;;2.77;;
10465;SDS011;5280;42.600;23.556;2023-07-13T00:22:57;3.50;;;2.93;;
10465;SDS011;5280;42.600;23.556;2023-07-13T00:25:24;3.17;;;2.87;;
10465;SDS011;5280;42.600;23.556;2023-07-13T00:27:53;5.30;;;3.07;;
10465;SDS011;5280;42.600;23.556;2023-07-13T00:30:22;3.13;;;2.53;;
10465;SDS011;5280;42.600;23.556;2023-07-13T00:32:49;3.27;;;2.97;;
10465;SDS011;5280;42.600;23.556;2023-07-13T00:35:16;3.87;;;2.97;;
10465;SDS011;5280;42.600;23.556;2023-07-13T00:37:44;3.10;;;2.80;;
10465;SDS011;5280;42.600;23.556;2023-07-13T00:40:13;3.07;;;2.77;;
10465;SDS011;5280;42.600;23.556;2023-07-13T00:42:41;4.53;;;2.77;;
10465;SDS011;5280;42.600;23.556;2023-07-13T00:48:10;4.20;;;3.20;;
10465;SDS011;5280;42.600;23.556;2023-07-13T00:50:37;5.10;;;2.70;;
10465;SDS011;5280;42.600;23.556;2023-07-13T00:53:06;3.53;;;3.22;;
10465;SDS011;5280;42.600;23.556;2023-07-13T00:55:34;2.87;;;2.67;;
10465;SDS011;5280;42.600;23.556;2023-07-13T00:58:02;3.43;;;3.13;;
10465;SDS011;5280;42.600;23.556;2023-07-13T01:00:29;4.57;;;3.33;;
10465;SDS011;5280;42.600;23.556;2023-07-13T01:02:57;2.80;;;2.60;;
10465;SDS011;5280;42.600;23.556;2023-07-13T01:05:25;5.70;;;2.93;;
10465;SDS011;5280;42.600;23.556;2023-07-13T01:07:52;4.00;;;3.27;;
10465;SDS011;5280;42.600;23.556;2023-07-13T01:10:21;3.00;;;2.80;;
10465;SDS011;5280;42.600;23.556;2023-07-13T01:12:49;3.20;;;2.90;;
10465;SDS011;5280;42.600;23.556;2023-07-13T01:15:33;3.20;;;2.90;;
10465;SDS011;5280;42.600;23.556;2023-07-13T01:18:05;3.70;;;3.40;;
10465;SDS011;5280;42.600;23.556;2023-07-13T01:20:37;3.43;;;2.87;;
10465;SDS011;5280;42.600;23.556;2023-07-13T01:23:07;2.90;;;2.70;;
10465;SDS011;5280;42.600;23.556;2023-07-13T01:25:39;3.20;;;3.00;;
10465;SDS011;5280;42.600;23.556;2023-07-13T01:28:06;4.73;;;3.17;;
10465;SDS011;5280;42.600;23.556;2023-07-13T01:30:34;4.17;;;3.00;;
10465;SDS011;5280;42.600;23.556;2023-07-13T01:33:03;5.23;;;3.40;;
10465;SDS011;5280;42.600;23.556;2023-07-13T01:35:30;2.90;;;2.67;;
10465;SDS011;5280;42.600;23.556;2023-07-13T01:37:57;3.90;;;3.03;;
10465;SDS011;5280;42.600;23.556;2023-07-13T01:40:26;3.27;;;2.97;;
10465;SDS011;5280;42.600;23.556;2023-07-13T01:42:54;4.77;;;3.30;;
10465;SDS011;5280;42.600;23.556;2023-07-13T01:45:22;4.43;;;3.20;;
10465;SDS011;5280;42.600;23.556;2023-07-13T01:47:49;4.30;;;3.23;;
10465;SDS011;5280;42.600;23.556;2023-07-13T01:50:16;4.23;;;2.87;;
10465;SDS011;5280;42.600;23.556;2023-07-13T01:52:43;4.53;;;3.10;;
10465;SDS011;5280;42.600;23.556;2023-07-13T01:55:10;3.70;;;3.30;;
10465;SDS011;5280;42.600;23.556;2023-07-13T01:57:38;9.80;;;4.03;;
10465;SDS011;5280;42.600;23.556;2023-07-13T02:00:06;3.87;;;3.47;;
10465;SDS011;5280;42.600;23.556;2023-07-13T02:02:33;4.33;;;3.20;;
10465;SDS011;5280;42.600;23.556;2023-07-13T02:05:00;3.63;;;3.33;;
10465;SDS011;5280;42.600;23.556;2023-07-13T02:07:27;3.30;;;3.00;;
10465;SDS011;5280;42.600;23.556;2023-07-13T02:09:54;3.23;;;2.93;;
10465;SDS011;5280;42.600;23.556;2023-07-13T02:12:21;4.87;;;3.70;;
10465;SDS011;5280;42.600;23.556;2023-07-13T02:14:49;3.03;;;2.80;;
10465;SDS011;5280;42.600;23.556;2023-07-13T02:17:15;3.50;;;3.20;;
10465;SDS011;5280;42.600;23.556;2023-07-13T02:19:42;4.83;;;3.70;;
10465;SDS011;5280;42.600;23.556;2023-07-13T02:22:09;3.40;;;3.10;;
10465;SDS011;5280;42.600;23.556;2023-07-13T02:24:36;3.53;;;3.23;;
10465;SDS011;5280;42.600;23.556;2023-07-13T02:27:03;4.13;;;3.03;;
10465;SDS011;5280;42.600;23.556;2023-07-13T02:29:30;4.30;;;3.50;;
10465;SDS011;5280;42.600;23.556;2023-07-13T02:31:59;4.17;;;3.57;;
10465;SDS011;5280;42.600;23.556;2023-07-13T02:34:26;3.63;;;3.33;;
10465;SDS011;5280;42.600;23.556;2023-07-13T02:36:53;3.83;;;3.40;;
10465;SDS011;5280;42.600;23.556;2023-07-13T02:39:19;4.47;;;3.20;;
10465;SDS011;5280;42.600;23.556;2023-07-13T02:41:46;3.77;;;3.47;;
10465;SDS011;5280;42.600;23.556;2023-07-13T02:44:13;4.17;;;3.60;;
10465;SDS011;5280;42.600;23.556;2023-07-13T02:46:40;6.50;;;3.43;;
10465;SDS011;5280;42.600;23.556;2023-07-13T02:49:08;5.07;;;3.47;;
10465;SDS011;5280;42.600;23.556;2023-07-13T02:51:35;3.83;;;3.40;;
10465;SDS011;5280;42.600;23.556;2023-07-13T02:54:03;6.23;;;3.50;;
10465;SDS011;5280;42.600;23.556;2023-07-13T02:56:31;3.93;;;3.53;;
10465;SDS011;5280;42.600;23.556;2023-07-13T02:58:57;4.00;;;3.70;;
10465;SDS011;5280;42.600;23.556;2023-07-13T03:01:24;6.40;;;3.63;;
10465;SDS011;5280;42.600;23.556;2023-07-13T03:03:52;4.20;;;3.80;;
10465;SDS011;5280;42.600;23.556;2023-07-13T03:06:20;6.55;;;4.28;;
10465;SDS011;5280;42.600;23.556;2023-07-13T03:08:48;3.90;;;3.50;;
10465;SDS011;5280;42.600;23.556;2023-07-13T03:11:16;4.00;;;3.60;;
10465;SDS011;5280;42.600;23.556;2023-07-13T03:13:44;3.67;;;3.40;;
10465;SDS011;5280;42.600;23.556;2023-07-13T03:16:11;3.90;;;3.50;;
10465;SDS011;5280;42.600;23.556;2023-07-13T03:18:41;4.57;;;3.23;;
10465;SDS011;5280;42.600;23.556;2023-07-13T03:21:08;4.27;;;3.40;;
10465;SDS011;5280;42.600;23.556;2023-07-13T03:23:36;3.67;;;3.27;;
10465;SDS011;5280;42.600;23.556;2023-07-13T03:26:04;5.87;;;3.60;;
10465;SDS011;5280;42.600;23.556;2023-07-13T03:28:32;4.13;;;3.83;;
10465;SDS011;5280;42.600;23.556;2023-07-13T03:31:00;4.00;;;3.60;;
10465;SDS011;5280;42.600;23.556;2023-07-13T03:33:28;3.73;;;3.40;;
10465;SDS011;5280;42.600;23.556;2023-07-13T03:35:55;3.70;;;3.40;;
10465;SDS011;5280;42.600;23.556;2023-07-13T03:38:22;3.87;;;3.57;;
10465;SDS011;5280;42.600;23.556;2023-07-13T03:40:51;6.20;;;4.07;;
10465;SDS011;5280;42.600;23.556;2023-07-13T03:43:20;3.87;;;3.57;;
10465;SDS011;5280;42.600;23.556;2023-07-13T03:45:47;4.90;;;3.73;;
10465;SDS011;5280;42.600;23.556;2023-07-13T03:48:14;5.47;;;4.03;;
10465;SDS011;5280;42.600;23.556;2023-07-13T03:50:41;4.20;;;3.80;;
10465;SDS011;5280;42.600;23.556;2023-07-13T03:53:08;5.33;;;4.10;;
10465;SDS011;5280;42.600;23.556;2023-07-13T03:55:35;5.93;;;4.03;;
10465;SDS011;5280;42.600;23.556;2023-07-13T04:00:53;4.40;;;4.10;;
10465;SDS011;5280;42.600;23.556;2023-07-13T04:03:20;5.53;;;4.30;;
10465;SDS011;5280;42.600;23.556;2023-07-13T04:05:47;4.33;;;3.93;;
10465;SDS011;5280;42.600;23.556;2023-07-13T04:08:13;4.87;;;4.27;;
10465;SDS011;5280;42.600;23.556;2023-07-13T04:10:40;4.70;;;4.20;;
10465;SDS011;5280;42.600;23.556;2023-07-13T04:13:08;5.10;;;4.13;;
10465;SDS011;5280;42.600;23.556;2023-07-13T04:15:41;5.17;;;3.83;;
10465;SDS011;5280;42.600;23.556;2023-07-13T04:18:08;5.20;;;4.50;;
10465;SDS011;5280;42.600;23.556;2023-07-13T04:20:38;4.77;;;4.40;;
10465;SDS011;5280;42.600;23.556;2023-07-13T04:23:05;5.67;;;4.33;;
10465;SDS011;5280;42.600;23.556;2023-07-13T04:25:32;6.37;;;4.40;;
10465;SDS011;5280;42.600;23.556;2023-07-13T04:27:59;4.30;;;3.93;;
10465;SDS011;5280;42.600;23.556;2023-07-13T04:30:26;7.87;;;4.53;;
10465;SDS011;5280;42.600;23.556;2023-07-13T04:32:55;5.33;;;4.30;;
10465;SDS011;5280;42.600;23.556;2023-07-13T04:35:22;7.07;;;4.33;;
10465;SDS011;5280;42.600;23.556;2023-07-13T04:37:51;4.73;;;4.17;;
10465;SDS011;5280;42.600;23.556;2023-07-13T04:40:18;5.47;;;3.67;;
10465;SDS011;5280;42.600;23.556;2023-07-13T04:42:46;6.13;;;4.37;;
10465;SDS011;5280;42.600;23.556;2023-07-13T04:45:13;4.83;;;4.37;;
10465;SDS011;5280;42.600;23.556;2023-07-13T04:47:41;6.60;;;5.13;;
10465;SDS011;5280;42.600;23.556;2023-07-13T04:50:09;6.15;;;4.53;;
10465;SDS011;5280;42.600;23.556;2023-07-13T04:52:37;4.83;;;4.30;;
10465;SDS011;5280;42.600;23.556;2023-07-13T04:55:04;6.30;;;4.65;;
10465;SDS011;5280;42.600;23.556;2023-07-13T04:57:31;4.80;;;4.28;;
10465;SDS011;5280;42.600;23.556;2023-07-13T04:59:58;6.47;;;4.32;;
10465;SDS011;5280;42.600;23.556;2023-07-13T05:02:26;5.75;;;4.97;;
10465;SDS011;5280;42.600;23.556;2023-07-13T05:04:53;5.75;;;4.90;;
10465;SDS011;5280;42.600;23.556;2023-07-13T05:07:21;5.38;;;4.93;;
10465;SDS011;5280;42.600;23.556;2023-07-13T05:09:48;5.30;;;4.80;;
10465;SDS011;5280;42.600;23.556;2023-07-13T05:12:15;5.57;;;4.93;;
10465;SDS011;5280;42.600;23.556;2023-07-13T05:14:41;5.45;;;4.70;;
10465;SDS011;5280;42.600;23.556;2023-07-13T05:17:08;6.65;;;5.20;;
10465;SDS011;5280;42.600;23.556;2023-07-13T05:19:35;7.50;;;4.82;;
10465;SDS011;5280;42.600;23.556;2023-07-13T05:22:02;5.55;;;4.75;;
10465;SDS011;5280;42.600;23.556;2023-07-13T05:24:30;5.65;;;4.95;;
10465;SDS011;5280;42.600;23.556;2023-07-13T05:26:57;5.60;;;5.20;;
10465;SDS011;5280;42.600;23.556;2023-07-13T05:29:24;5.40;;;4.90;;
10465;SDS011;5280;42.600;23.556;2023-07-13T05:31:51;6.53;;;5.68;;
10465;SDS011;5280;42.600;23.556;2023-07-13T05:34:18;5.45;;;4.95;;
10465;SDS011;5280;42.600;23.556;2023-07-13T05:36:45;5.90;;;5.40;;
10465;SDS011;5280;42.600;23.556;2023-07-13T05:39:11;5.78;;;5.30;;
10465;SDS011;5280;42.600;23.556;2023-07-13T05:41:40;6.63;;;5.80;;
10465;SDS011;5280;42.600;23.556;2023-07-13T05:44:07;10.43;;;6.07;;
10465;SDS011;5280;42.600;23.556;2023-07-13T05:46:34;6.68;;;5.68;;
10465;SDS011;5280;42.600;23.556;2023-07-13T05:49:01;7.80;;;5.93;;
10465;SDS011;5280;42.600;23.556;2023-07-13T05:51:28;5.55;;;5.05;;
10465;SDS011;5280;42.600;23.556;2023-07-13T05:53:55;8.90;;;5.70;;
10465;SDS011;5280;42.600;23.556;2023-07-13T05:56:22;6.88;;;6.15;;
10465;SDS011;5280;42.600;23.556;2023-07-13T05:58:51;7.93;;;5.60;;
10465;SDS011;5280;42.600;23.556;2023-07-13T06:01:18;6.63;;;5.55;;
10465;SDS011;5280;42.600;23.556;2023-07-13T06:03:47;8.05;;;5.70;;
10465;SDS011;5280;42.600;23.556;2023-07-13T06:06:14;6.65;;;6.15;;
10465;SDS011;5280;42.600;23.556;2023-07-13T06:08:42;7.38;;;6.60;;
10465;SDS011;5280;42.600;23.556;2023-07-13T06:11:11;6.60;;;5.97;;
10465;SDS011;5280;42.600;23.556;2023-07-13T06:13:40;5.97;;;5.53;;
10465;SDS011;5280;42.600;23.556;2023-07-13T06:16:09;6.45;;;5.85;;
10465;SDS011;5280;42.600;23.556;2023-07-13T06:18:37;7.43;;;5.88;;
10465;SDS011;5280;42.600;23.556;2023-07-13T06:21:07;5.53;;;5.10;;
10465;SDS011;5280;42.600;23.556;2023-07-13T06:23:34;6.18;;;5.03;;
10465;SDS011;5280;42.600;23.556;2023-07-13T06:26:05;6.40;;;5.80;;
10465;SDS011;5280;42.600;23.556;2023-07-13T06:28:32;5.82;;;5.32;;
10465;SDS011;5280;42.600;23.556;2023-07-13T06:31:00;6.07;;;5.35;;
10465;SDS011;5280;42.600;23.556;2023-07-13T06:33:29;6.47;;;5.35;;
10465;SDS011;5280;42.600;23.556;2023-07-13T06:35:55;7.68;;;5.70;;
10465;SDS011;5280;42.600;23.556;2023-07-13T06:38:22;6.03;;;5.43;;
10465;SDS011;5280;42.600;23.556;2023-07-13T06:40:49;7.00;;;5.88;;
10465;SDS011;5280;42.600;23.556;2023-07-13T06:43:16;7.40;;;5.68;;
10465;SDS011;5280;42.600;23.556;2023-07-13T06:45:43;6.43;;;5.82;;
10465;SDS011;5280;42.600;23.556;2023-07-13T06:48:12;5.97;;;5.40;;
10465;SDS011;5280;42.600;23.556;2023-07-13T06:50:41;6.18;;;5.32;;
10465;SDS011;5280;42.600;23.556;2023-07-13T06:53:08;7.57;;;5.65;;
10465;SDS011;5280;42.600;23.556;2023-07-13T06:55:35;6.95;;;5.90;;
10465;SDS011;5280;42.600;23.556;2023-07-13T06:58:02;9.15;;;6.30;;
10465;SDS011;5280;42.600;23.556;2023-07-13T07:00:29;6.40;;;5.90;;
10465;SDS011;5280;42.600;23.556;2023-07-13T07:02:56;6.35;;;5.72;;
10465;SDS011;5280;42.600;23.556;2023-07-13T07:05:23;6.57;;;5.53;;
10465;SDS011;5280;42.600;23.556;2023-07-13T07:07:52;5.72;;;5.25;;
10465;SDS011;5280;42.600;23.556;2023-07-13T07:10:20;6.90;;;5.70;;
10465;SDS011;5280;42.600;23.556;2023-07-13T07:12:47;6.72;;;6.03;;
10465;SDS011;5280;42.600;23.556;2023-07-13T07:15:15;6.20;;;5.60;;
10465;SDS011;5280;42.600;23.556;2023-07-13T07:17:43;8.45;;;5.97;;
10465;SDS011;5280;42.600;23.556;2023-07-13T07:20:10;7.35;;;6.40;;
10465;SDS011;5280;42.600;23.556;2023-07-13T07:22:38;6.55;;;5.85;;
10465;SDS011;5280;42.600;23.556;2023-07-13T07:25:06;6.93;;;6.07;;
10465;SDS011;5280;42.600;23.556;2023-07-13T07:27:33;7.03;;;5.90;;
10465;SDS011;5280;42.600;23.556;2023-07-13T07:30:00;7.10;;;6.40;;
10465;SDS011;5280;42.600;23.556;2023-07-13T07:32:29;6.57;;;6.00;;
10465;SDS011;5280;42.600;23.556;2023-07-13T07:34:57;6.97;;;6.30;;
10465;SDS011;5280;42.600;23.556;2023-07-13T07:37:24;7.18;;;6.57;;
10465;SDS011;5280;42.600;23.556;2023-07-13T07:39:51;10.38;;;6.20;;
10465;SDS011;5280;42.600;23.556;2023-07-13T07:42:19;6.93;;;6.25;;
10465;SDS011;5280;42.600;23.556;2023-07-13T07:44:47;7.13;;;6.40;;
10465;SDS011;5280;42.600;23.556;2023-07-13T07:47:14;7.20;;;6.20;;
10465;SDS011;5280;42.600;23.556;2023-07-13T07:49:41;6.65;;;6.00;;
10465;SDS011;5280;42.600;23.556;2023-07-13T07:52:07;7.40;;;6.75;;
10465;SDS011;5280;42.600;23.556;2023-07-13T07:54:35;7.82;;;6.05;;
10465;SDS011;5280;42.600;23.556;2023-07-13T07:57:02;6.88;;;6.32;;
10465;SDS011;5280;42.600;23.556;2023-07-13T07:59:33;6.82;;;6.13;;
10465;SDS011;5280;42.600;23.556;2023-07-13T08:02:00;6.82;;;6.07;;
10465;SDS011;5280;42.600;23.556;2023-07-13T08:04:27;6.50;;;5.97;;
10465;SDS011;5280;42.600;23.556;2023-07-13T08:06:54;7.32;;;6.45;;
10465;SDS011;5280;42.600;23.556;2023-07-13T08:09:22;6.93;;;6.32;;
10465;SDS011;5280;42.600;23.556;2023-07-13T08:11:49;7.22;;;5.85;;
10465;SDS011;5280;42.600;23.556;2023-07-13T08:14:17;6.60;;;6.03;;
10465;SDS011;5280;42.600;23.556;2023-07-13T08:16:45;7.20;;;6.50;;
10465;SDS011;5280;42.600;23.556;2023-07-13T08:19:12;9.88;;;6.55;;
10465;SDS011;5280;42.600;23.556;2023-07-13T08:21:39;6.90;;;6.30;;
10465;SDS011;5280;42.600;23.556;2023-07-13T08:24:07;6.10;;;5.55;;
10465;SDS011;5280;42.600;23.556;2023-07-13T08:26:34;7.00;;;6.40;;
10465;SDS011;5280;42.600;23.556;2023-07-13T08:29:01;7.75;;;6.80;;
10465;SDS011;5280;42.600;23.556;2023-07-13T08:31:28;6.30;;;5.80;;
10465;SDS011;5280;42.600;23.556;2023-07-13T08:33:56;6.63;;;5.95;;
10465;SDS011;5280;42.600;23.556;2023-07-13T08:36:24;6.65;;;6.10;;
10465;SDS011;5280;42.600;23.556;2023-07-13T08:38:51;6.90;;;6.22;;
10465;SDS011;5280;42.600;23.556;2023-07-13T08:41:21;5.82;;;5.38;;
10465;SDS011;5280;42.600;23.556;2023-07-13T08:43:49;6.30;;;5.70;;
10465;SDS011;5280;42.600;23.556;2023-07-13T08:46:19;6.22;;;5.55;;
10465;SDS011;5280;42.600;23.556;2023-07-13T08:48:50;5.90;;;5.40;;
10465;SDS011;5280;42.600;23.556;2023-07-13T08:51:28;7.65;;;5.75;;
10465;SDS011;5280;42.600;23.556;2023-07-13T08:54:02;6.68;;;6.05;;
10465;SDS011;5280;42.600;23.556;2023-07-13T08:56:31;7.13;;;6.43;;
10465;SDS011;5280;42.600;23.556;2023-07-13T08:59:00;7.65;;;6.25;;
10465;SDS011;5280;42.600;23.556;2023-07-13T09:01:48;7.03;;;5.85;;
10465;SDS011;5280;42.600;23.556;2023-07-13T09:04:26;6.30;;;5.40;;
10465;SDS011;5280;42.600;23.556;2023-07-13T09:07:00;7.32;;;6.63;;
10465;SDS011;5280;42.600;23.556;2023-07-13T09:09:41;6.90;;;6.30;;
10465;SDS011;5280;42.600;23.556;2023-07-13T09:12:21;8.93;;;6.80;;
10465;SDS011;5280;42.600;23.556;2023-07-13T09:14:53;8.73;;;6.18;;
10465;SDS011;5280;42.600;23.556;2023-07-13T09:17:23;9.02;;;6.43;;
10465;SDS011;5280;42.600;23.556;2023-07-13T09:19:55;9.35;;;6.43;;
10465;SDS011;5280;42.600;23.556;2023-07-13T09:22:29;7.55;;;6.82;;
10465;SDS011;5280;42.600;23.556;2023-07-13T09:25:02;7.30;;;6.60;;
10465;SDS011;5280;42.600;23.556;2023-07-13T09:27:34;8.38;;;7.18;;
10465;SDS011;5280;42.600;23.556;2023-07-13T09:30:15;9.70;;;6.45;;
10465;SDS011;5280;42.600;23.556;2023-07-13T09:32:50;9.25;;;6.43;;
10465;SDS011;5280;42.600;23.556;2023-07-13T09:35:20;7.28;;;6.60;;
10465;SDS011;5280;42.600;23.556;2023-07-13T09:37:56;8.48;;;7.13;;
10465;SDS011;5280;42.600;23.556;2023-07-13T09:40:30;10.73;;;6.78;;
10465;SDS011;5280;42.600;23.556;2023-07-13T09:43:06;8.20;;;7.00;;
10465;SDS011;5280;42.600;23.556;2023-07-13T09:45:37;9.23;;;6.72;;
10465;SDS011;5280;42.600;23.556;2023-07-13T09:48:05;6.93;;;6.22;;
10465;SDS011;5280;42.600;23.556;2023-07-13T09:50:34;7.43;;;6.72;;
10465;SDS011;5280;42.600;23.556;2023-07-13T09:53:03;7.50;;;6.80;;
10465;SDS011;5280;42.600;23.556;2023-07-13T09:55:30;6.75;;;6.15;;
10465;SDS011;5280;42.600;23.556;2023-07-13T09:58:02;7.47;;;6.88;;
10465;SDS011;5280;42.600;23.556;2023-07-13T10:00:31;8.05;;;6.43;;
10465;SDS011;5280;42.600;23.556;2023-07-13T10:02:59;10.20;;;6.50;;
10465;SDS011;5280;42.600;23.556;2023-07-13T10:05:28;7.60;;;6.80;;
10465;SDS011;5280;42.600;23.556;2023-07-13T10:08:05;9.48;;;7.47;;
10465;SDS011;5280;42.600;23.556;2023-07-13T10:10:33;8.23;;;7.47;;
10465;SDS011;5280;42.600;23.556;2023-07-13T10:13:01;7.97;;;7.22;;
10465;SDS011;5280;42.600;23.556;2023-07-13T10:15:30;7.75;;;7.00;;
10465;SDS011;5280;42.600;23.556;2023-07-13T10:17:58;8.20;;;7.30;;
10465;SDS011;5280;42.600;23.556;2023-07-13T10:20:26;8.38;;;7.18;;
10465;SDS011;5280;42.600;23.556;2023-07-13T10:22:55;7.45;;;6.85;;
10465;SDS011;5280;42.600;23.556;2023-07-13T10:25:28;7.47;;;6.90;;
10465;SDS011;5280;42.600;23.556;2023-07-13T10:28:00;7.45;;;6.72;;
10465;SDS011;5280;42.600;23.556;2023-07-13T10:30:38;7.88;;;6.75;;
10465;SDS011;5280;42.600;23.556;2023-07-13T10:33:10;11.75;;;7.22;;
10465;SDS011;5280;42.600;23.556;2023-07-13T10:35:38;7.35;;;6.65;;
10465;SDS011;5280;42.600;23.556;2023-07-13T10:38:10;7.82;;;6.47;;
10465;SDS011;5280;42.600;23.556;2023-07-13T10:40:41;9.82;;;6.90;;
10465;SDS011;5280;42.600;23.556;2023-07-13T10:43:14;7.05;;;6.00;;
10465;SDS011;5280;42.600;23.556;2023-07-13T10:45:45;9.98;;;6.57;;
10465;SDS011;5280;42.600;23.556;2023-07-13T10:48:15;7.80;;;5.90;;
10465;SDS011;5280;42.600;23.556;2023-07-13T10:50:44;7.65;;;6.95;;
10465;SDS011;5280;42.600;23.556;2023-07-13T10:53:18;8.60;;;6.53;;
10465;SDS011;5280;42.600;23.556;2023-07-13T10:56:01;7.47;;;6.80;;
10465;SDS011;5280;42.600;23.556;2023-07-13T10:58:34;9.00;;;6.65;;
10465;SDS011;5280;42.600;23.556;2023-07-13T11:01:04;7.93;;;5.70;;
10465;SDS011;5280;42.600;23.556;2023-07-13T11:03:35;7.53;;;6.07;;
10465;SDS011;5280;42.600;23.556;2023-07-13T11:06:05;6.40;;;5.82;;
10465;SDS011;5280;42.600;23.556;2023-07-13T11:08:36;6.88;;;6.28;;
10465;SDS011;5280;42.600;23.556;2023-07-13T11:11:09;9.30;;;6.28;;
10465;SDS011;5280;42.600;23.556;2023-07-13T11:14:01;8.00;;;6.18;;
10465;SDS011;5280;42.600;23.556;2023-07-13T11:16:38;7.13;;;6.13;;
10465;SDS011;5280;42.600;23.556;2023-07-13T11:22:13;8.48;;;6.13;;
10465;SDS011;5280;42.600;23.556;2023-07-13T11:27:37;6.72;;;6.15;;
10465;SDS011;5280;42.600;23.556;2023-07-13T11:33:13;8.30;;;6.15;;
10465;SDS011;5280;42.600;23.556;2023-07-13T11:35:45;7.10;;;6.40;;
10465;SDS011;5280;42.600;23.556;2023-07-13T11:38:16;6.75;;;6.03;;
10465;SDS011;5280;42.600;23.556;2023-07-13T11:40:46;8.48;;;6.35;;
10465;SDS011;5280;42.600;23.556;2023-07-13T11:43:14;8.90;;;5.82;;
10465;SDS011;5280;42.600;23.556;2023-07-13T11:45:44;6.70;;;6.03;;
10465;SDS011;5280;42.600;23.556;2023-07-13T11:48:18;7.72;;;6.32;;
10465;SDS011;5280;42.600;23.556;2023-07-13T11:50:51;7.25;;;6.30;;
10465;SDS011;5280;42.600;23.556;2023-07-13T11:53:22;6.60;;;5.95;;
10465;SDS011;5280;42.600;23.556;2023-07-13T11:55:52;9.82;;;6.13;;
10465;SDS011;5280;42.600;23.556;2023-07-13T11:58:21;9.65;;;6.00;;
10465;SDS011;5280;42.600;23.556;2023-07-13T12:00:52;9.52;;;6.55;;
10465;SDS011;5280;42.600;23.556;2023-07-13T12:03:22;6.55;;;5.70;;
10465;SDS011;5280;42.600;23.556;2023-07-13T12:05:58;8.70;;;6.30;;
10465;SDS011;5280;42.600;23.556;2023-07-13T12:08:27;7.97;;;5.85;;
10465;SDS011;5280;42.600;23.556;2023-07-13T12:11:04;8.02;;;5.82;;
10465;SDS011;5280;42.600;23.556;2023-07-13T12:13:35;9.40;;;6.00;;
10465;SDS011;5280;42.600;23.556;2023-07-13T12:16:14;6.97;;;5.93;;
10465;SDS011;5280;42.600;23.556;2023-07-13T12:18:43;7.60;;;5.75;;
10465;SDS011;5280;42.600;23.556;2023-07-13T12:21:14;7.20;;;6.05;;
10465;SDS011;5280;42.600;23.556;2023-07-13T12:23:44;13.40;;;7.00;;
10465;SDS011;5280;42.600;23.556;2023-07-13T12:26:16;7.68;;;6.10;;
10465;SDS011;5280;42.600;23.556;2023-07-13T12:28:46;7.28;;;6.07;;
10465;SDS011;5280;42.600;23.556;2023-07-13T12:34:06;6.90;;;6.22;;
10465;SDS011;5280;42.600;23.556;2023-07-13T12:36:37;8.80;;;6.68;;
10465;SDS011;5280;42.600;23.556;2023-07-13T12:39:14;9.15;;;6.07;;
10465;SDS011;5280;42.600;23.556;2023-07-13T12:41:43;8.30;;;6.13;;
10465;SDS011;5280;42.600;23.556;2023-07-13T12:44:11;7.10;;;6.50;;
10465;SDS011;5280;42.600;23.556;2023-07-13T12:49:31;8.95;;;6.10;;
10465;SDS011;5280;42.600;23.556;2023-07-13T12:52:01;11.07;;;6.15;;
10465;SDS011;5280;42.600;23.556;2023-07-13T12:54:30;9.40;;;6.32;;
10465;SDS011;5280;42.600;23.556;2023-07-13T12:56:58;9.88;;;6.68;;
10465;SDS011;5280;42.600;23.556;2023-07-13T12:59:29;8.00;;;6.10;;
10465;SDS011;5280;42.600;23.556;2023-07-13T13:02:05;7.10;;;6.40;;
10465;SDS011;5280;42.600;23.556;2023-07-13T13:04:56;9.13;;;5.93;;
10465;SDS011;5280;42.600;23.556;2023-07-13T13:07:24;10.32;;;5.97;;
10465;SDS011;5280;42.600;23.556;2023-07-13T13:09:51;9.13;;;6.20;;
10465;SDS011;5280;42.600;23.556;2023-07-13T13:12:20;8.75;;;6.13;;
10465;SDS011;5280;42.600;23.556;2023-07-13T13:14:47;8.43;;;6.18;;
10465;SDS011;5280;42.600;23.556;2023-07-13T13:17:19;10.68;;;6.50;;
10465;SDS011;5280;42.600;23.556;2023-07-13T13:19:49;9.38;;;6.22;;
10465;SDS011;5280;42.600;23.556;2023-07-13T13:22:19;9.73;;;6.13;;
10465;SDS011;5280;42.600;23.556;2023-07-13T13:24:46;7.05;;;5.70;;
10465;SDS011;5280;42.600;23.556;2023-07-13T13:27:17;7.18;;;6.40;;
10465;SDS011;5280;42.600;23.556;2023-07-13T13:29:46;6.93;;;6.10;;
10465;SDS011;5280;42.600;23.556;2023-07-13T13:32:15;6.97;;;6.28;;
10465;SDS011;5280;42.600;23.556;2023-07-13T13:34:43;14.55;;;6.50;;
10465;SDS011;5280;42.600;23.556;2023-07-13T13:37:20;6.65;;;5.95;;
10465;SDS011;5280;42.600;23.556;2023-07-13T13:39:50;6.88;;;6.10;;
10465;SDS011;5280;42.600;23.556;2023-07-13T13:42:19;6.75;;;6.07;;
10465;SDS011;5280;42.600;23.556;2023-07-13T13:44:49;8.38;;;6.05;;
10465;SDS011;5280;42.600;23.556;2023-07-13T13:47:22;9.70;;;6.20;;
10465;SDS011;5280;42.600;23.556;2023-07-13T13:49:57;12.25;;;6.43;;
10465;SDS011;5280;42.600;23.556;2023-07-13T13:52:25;11.95;;;6.18;;
10465;SDS011;5280;42.600;23.556;2023-07-13T13:54:52;6.63;;;6.03;;
10465;SDS011;5280;42.600;23.556;2023-07-13T13:57:21;7.47;;;6.00;;
10465;SDS011;5280;42.600;23.556;2023-07-13T13:59:49;7.68;;;6.20;;
10465;SDS011;5280;42.600;23.556;2023-07-13T14:02:20;7.72;;;6.05;;
10465;SDS011;5280;42.600;23.556;2023-07-13T14:04:50;7.50;;;5.70;;
10465;SDS011;5280;42.600;23.556;2023-07-13T14:07:22;7.75;;;6.15;;
10465;SDS011;5280;42.600;23.556;2023-07-13T14:09:49;6.90;;;6.28;;
10465;SDS011;5280;42.600;23.556;2023-07-13T14:12:19;7.70;;;6.55;;
10465;SDS011;5280;42.600;23.556;2023-07-13T14:14:51;10.27;;;6.25;;
10465;SDS011;5280;42.600;23.556;2023-07-13T14:17:19;9.82;;;6.43;;
10465;SDS011;5280;42.600;23.556;2023-07-13T14:19:49;10.10;;;6.43;;
10465;SDS011;5280;42.600;23.556;2023-07-13T14:22:23;7.57;;;5.88;;
10465;SDS011;5280;42.600;23.556;2023-07-13T14:24:51;9.10;;;6.30;;
10465;SDS011;5280;42.600;23.556;2023-07-13T14:27:19;7.03;;;6.35;;
10465;SDS011;5280;42.600;23.556;2023-07-13T14:29:49;8.00;;;6.07;;
10465;SDS011;5280;42.600;23.556;2023-07-13T14:32:16;11.57;;;6.55;;
10465;SDS011;5280;42.600;23.556;2023-07-13T14:34:43;7.53;;;6.07;;
10465;SDS011;5280;42.600;23.556;2023-07-13T14:37:12;7.35;;;5.65;;
10465;SDS011;5280;42.600;23.556;2023-07-13T14:39:41;6.68;;;6.03;;
10465;SDS011;5280;42.600;23.556;2023-07-13T14:42:11;8.88;;;6.20;;
10465;SDS011;5280;42.600;23.556;2023-07-13T14:44:38;6.28;;;5.40;;
10465;SDS011;5280;42.600;23.556;2023-07-13T14:47:06;7.85;;;5.80;;
10465;SDS011;5280;42.600;23.556;2023-07-13T14:49:34;9.57;;;6.60;;
10465;SDS011;5280;42.600;23.556;2023-07-13T14:52:09;8.27;;;6.10;;
10465;SDS011;5280;42.600;23.556;2023-07-13T14:54:42;7.65;;;5.30;;
10465;SDS011;5280;42.600;23.556;2023-07-13T14:57:11;24.75;;;20.30;;
10465;SDS011;5280;42.600;23.556;2023-07-13T14:59:40;7.10;;;6.40;;
10465;SDS011;5280;42.600;23.556;2023-07-13T15:02:16;7.18;;;5.82;;
10465;SDS011;5280;42.600;23.556;2023-07-13T15:04:44;9.90;;;6.07;;
10465;SDS011;5280;42.600;23.556;2023-07-13T15:07:11;8.18;;;5.95;;
10465;SDS011;5280;42.600;23.556;2023-07-13T15:09:41;7.95;;;5.40;;
10465;SDS011;5280;42.600;23.556;2023-07-13T15:12:09;6.35;;;5.75;;
10465;SDS011;5280;42.600;23.556;2023-07-13T15:14:37;6.95;;;5.78;;
10465;SDS011;5280;42.600;23.556;2023-07-13T15:17:05;7.85;;;5.20;;
10465;SDS011;5280;42.600;23.556;2023-07-13T15:19:45;6.43;;;5.72;;